Portada
METAR-TAF:

METAR-TAF

Aeropuertos :

Sevilla, España

Aeropuerto de Sevilla

latitud: 37-25N, longitud: 005-54W, altitud: 34 m

Observación

El informe se hizo hace 23 minutos, a las 11:00 UTC
Viento 3 kt del noreste, variando entre norte y este
Temperatura 17°C
Humedad 45%
Presión 1020 hPa
Visibilidad 10 km o más
sin nubes por debajo de 1500 m y sin presencia de cumulonimbus.

METAR: LEZL 231100Z 04003KT 010V100 CAVOK 17/05 Q1020 NOSIG

Hora: 12:23 (11:23 UTC)

Pronóstico

El informe se hizo hace 3 horas y 23 minutos, a las 08:00 UTC
Pronóstico válido del 23 a las 09 UTC al 24 a las 09 UTC
Viento 5 kt del este-noreste
Visibilidad 10 km o más
sin nubes por debajo de 1500 m y sin presencia de cumulonimbus.
Probabilidad 40% :
Temporalmente
del 23 a las 13 UTC al 23 a las 18 UTC
Viento 10 kt del sur-suroeste

TAF: LEZL 230800Z 2309/2409 06005KT CAVOK TX22/2315Z TN10/2406Z PROB40 TEMPO 2313/2318 21010KT

Observaciones y pronósticos meteorológicos de más de 4000 aeropuertos (mensajes METAR y TAF).

Los puntos amarillos y rojos representan las estaciones disponibles.

Ponga el ratón en el punto deseado para ver el nombre de la estación.

Haga clic para ver las observaciones y los pronósticos meteorológicos.

Para cambiar el mapa : haga clic en los botones verdes con una cruz de color negro para hacer un zoom, en el botón verde con un guión para alejar o en las flechas verdes para mapas adyacentes.


METAR-TAF: